sensor_id;sensor_type;location;lat;lon;timestamp;pressure;altitude;pressure_sealevel;temperature;humidity
59650;BME280;46162;57.568;25.814;2023-08-07T00:00:40;99634.31;;;21.48;100.00
59650;BME280;46162;57.568;25.814;2023-08-07T00:03:08;99637.66;;;21.50;100.00
59650;BME280;46162;57.568;25.814;2023-08-07T00:05:38;99638.16;;;21.47;100.00
59650;BME280;46162;57.568;25.814;2023-08-07T00:08:07;99645.66;;;21.23;100.00
59650;BME280;46162;57.568;25.814;2023-08-07T00:10:35;99635.81;;;21.39;100.00
59650;BME280;46162;57.568;25.814;2023-08-07T00:13:04;99630.47;;;21.32;100.00
59650;BME280;46162;57.568;25.814;2023-08-07T00:15:33;99628.53;;;21.33;100.00
59650;BME280;46162;57.568;25.814;2023-08-07T00:18:03;99634.75;;;21.40;100.00
59650;BME280;46162;57.568;25.814;2023-08-07T00:20:32;99632.31;;;21.43;100.00
59650;BME280;46162;57.568;25.814;2023-08-07T00:23:00;99620.50;;;21.43;100.00
59650;BME280;46162;57.568;25.814;2023-08-07T00:25:29;99625.72;;;21.27;100.00
59650;BME280;46162;57.568;25.814;2023-08-07T00:27:57;99614.91;;;21.38;100.00
59650;BME280;46162;57.568;25.814;2023-08-07T00:30:26;99613.47;;;21.18;100.00
59650;BME280;46162;57.568;25.814;2023-08-07T00:32:55;99614.50;;;21.29;100.00
59650;BME280;46162;57.568;25.814;2023-08-07T00:35:25;99609.47;;;21.26;100.00
59650;BME280;46162;57.568;25.814;2023-08-07T00:37:53;99603.00;;;21.32;100.00
59650;BME280;46162;57.568;25.814;2023-08-07T00:40:22;99598.84;;;21.30;100.00
59650;BME280;46162;57.568;25.814;2023-08-07T00:42:50;99597.81;;;21.19;100.00
59650;BME280;46162;57.568;25.814;2023-08-07T00:45:20;99597.59;;;21.37;100.00
59650;BME280;46162;57.568;25.814;2023-08-07T00:47:48;99592.53;;;21.46;100.00
59650;BME280;46162;57.568;25.814;2023-08-07T00:50:17;99593.94;;;21.32;100.00
59650;BME280;46162;57.568;25.814;2023-08-07T00:52:50;99590.97;;;21.50;100.00
59650;BME280;46162;57.568;25.814;2023-08-07T00:55:18;99595.03;;;21.47;100.00
59650;BME280;46162;57.568;25.814;2023-08-07T00:57:48;99585.91;;;21.42;100.00
59650;BME280;46162;57.568;25.814;2023-08-07T01:00:18;99590.06;;;21.44;100.00
59650;BME280;46162;57.568;25.814;2023-08-07T01:02:47;99569.78;;;21.34;100.00
59650;BME280;46162;57.568;25.814;2023-08-07T01:05:18;99574.06;;;21.24;100.00
59650;BME280;46162;57.568;25.814;2023-08-07T01:07:47;99575.63;;;21.20;100.00
59650;BME280;46162;57.568;25.814;2023-08-07T01:10:25;99584.69;;;21.38;100.00
59650;BME280;46162;57.568;25.814;2023-08-07T01:13:00;99573.00;;;21.42;100.00
59650;BME280;46162;57.568;25.814;2023-08-07T01:15:32;99570.88;;;21.33;100.00
59650;BME280;46162;57.568;25.814;2023-08-07T01:18:03;99574.22;;;21.35;100.00
59650;BME280;46162;57.568;25.814;2023-08-07T01:20:32;99566.41;;;21.26;100.00
59650;BME280;46162;57.568;25.814;2023-08-07T01:23:03;99565.56;;;21.26;100.00
59650;BME280;46162;57.568;25.814;2023-08-07T01:25:32;99564.72;;;21.25;100.00
59650;BME280;46162;57.568;25.814;2023-08-07T01:28:03;99561.56;;;21.34;100.00
59650;BME280;46162;57.568;25.814;2023-08-07T01:30:36;99562.72;;;21.21;100.00
59650;BME280;46162;57.568;25.814;2023-08-07T01:33:10;99559.47;;;21.24;100.00
59650;BME280;46162;57.568;25.814;2023-08-07T01:35:43;99552.09;;;21.24;100.00
59650;BME280;46162;57.568;25.814;2023-08-07T01:38:14;99555.25;;;21.16;100.00
59650;BME280;46162;57.568;25.814;2023-08-07T01:40:44;99554.19;;;21.17;100.00
59650;BME280;46162;57.568;25.814;2023-08-07T01:43:13;99554.09;;;21.29;100.00
59650;BME280;46162;57.568;25.814;2023-08-07T01:45:41;99556.56;;;21.31;100.00
59650;BME280;46162;57.568;25.814;2023-08-07T01:48:10;99541.47;;;21.45;100.00
59650;BME280;46162;57.568;25.814;2023-08-07T01:50:39;99545.63;;;21.47;100.00
59650;BME280;46162;57.568;25.814;2023-08-07T01:53:08;99546.59;;;21.24;100.00
59650;BME280;46162;57.568;25.814;2023-08-07T01:55:39;99530.81;;;21.32;100.00
59650;BME280;46162;57.568;25.814;2023-08-07T01:58:08;99532.63;;;21.26;100.00
59650;BME280;46162;57.568;25.814;2023-08-07T02:00:36;99534.63;;;21.47;100.00
59650;BME280;46162;57.568;25.814;2023-08-07T02:03:08;99530.25;;;21.46;100.00
59650;BME280;46162;57.568;25.814;2023-08-07T02:05:36;99524.91;;;21.40;100.00
59650;BME280;46162;57.568;25.814;2023-08-07T02:08:05;99528.06;;;21.32;100.00
59650;BME280;46162;57.568;25.814;2023-08-07T02:10:33;99525.31;;;21.32;100.00
59650;BME280;46162;57.568;25.814;2023-08-07T02:13:04;99521.72;;;21.48;100.00
59650;BME280;46162;57.568;25.814;2023-08-07T02:15:32;99512.91;;;21.46;100.00
59650;BME280;46162;57.568;25.814;2023-08-07T02:18:01;99524.09;;;21.39;100.00
59650;BME280;46162;57.568;25.814;2023-08-07T02:20:31;99513.63;;;21.58;100.00
59650;BME280;46162;57.568;25.814;2023-08-07T02:23:00;99514.41;;;21.37;100.00
59650;BME280;46162;57.568;25.814;2023-08-07T02:25:29;99510.44;;;21.44;100.00
59650;BME280;46162;57.568;25.814;2023-08-07T02:27:57;99512.13;;;21.34;100.00
59650;BME280;46162;57.568;25.814;2023-08-07T02:30:27;99508.66;;;21.55;100.00
59650;BME280;46162;57.568;25.814;2023-08-07T02:32:56;99507.41;;;21.46;100.00
59650;BME280;46162;57.568;25.814;2023-08-07T02:35:24;99503.22;;;21.60;100.00
59650;BME280;46162;57.568;25.814;2023-08-07T02:37:53;99500.50;;;21.43;100.00
59650;BME280;46162;57.568;25.814;2023-08-07T02:40:22;99499.34;;;21.56;100.00
59650;BME280;46162;57.568;25.814;2023-08-07T02:42:50;99503.84;;;21.45;100.00
59650;BME280;46162;57.568;25.814;2023-08-07T02:45:19;99504.66;;;21.46;100.00
59650;BME280;46162;57.568;25.814;2023-08-07T02:47:48;99501.44;;;21.49;100.00
59650;BME280;46162;57.568;25.814;2023-08-07T02:50:17;99511.31;;;21.50;100.00
59650;BME280;46162;57.568;25.814;2023-08-07T02:52:46;99510.50;;;21.50;100.00
59650;BME280;46162;57.568;25.814;2023-08-07T02:55:14;99508.00;;;21.48;100.00
59650;BME280;46162;57.568;25.814;2023-08-07T02:57:43;99509.69;;;21.49;100.00
59650;BME280;46162;57.568;25.814;2023-08-07T03:00:12;99507.31;;;21.58;100.00
59650;BME280;46162;57.568;25.814;2023-08-07T03:02:41;99519.31;;;21.52;100.00
59650;BME280;46162;57.568;25.814;2023-08-07T03:05:11;99513.84;;;21.52;100.00
59650;BME280;46162;57.568;25.814;2023-08-07T03:07:40;99519.41;;;21.40;100.00
59650;BME280;46162;57.568;25.814;2023-08-07T03:10:10;99519.72;;;21.43;100.00
59650;BME280;46162;57.568;25.814;2023-08-07T03:12:39;99516.25;;;21.48;100.00
59650;BME280;46162;57.568;25.814;2023-08-07T03:15:08;99516.44;;;21.63;100.00
59650;BME280;46162;57.568;25.814;2023-08-07T03:17:37;99521.81;;;21.53;100.00
59650;BME280;46162;57.568;25.814;2023-08-07T03:20:06;99516.75;;;21.45;100.00
59650;BME280;46162;57.568;25.814;2023-08-07T03:22:38;99513.47;;;21.65;100.00
59650;BME280;46162;57.568;25.814;2023-08-07T03:25:07;99516.31;;;21.53;100.00
59650;BME280;46162;57.568;25.814;2023-08-07T03:27:36;99516.91;;;21.55;100.00
59650;BME280;46162;57.568;25.814;2023-08-07T03:30:06;99521.41;;;21.61;100.00
59650;BME280;46162;57.568;25.814;2023-08-07T03:32:34;99514.41;;;21.76;100.00
59650;BME280;46162;57.568;25.814;2023-08-07T03:35:04;99511.75;;;21.81;100.00
59650;BME280;46162;57.568;25.814;2023-08-07T03:37:33;99516.75;;;21.84;100.00
59650;BME280;46162;57.568;25.814;2023-08-07T03:40:04;99511.19;;;21.79;100.00
59650;BME280;46162;57.568;25.814;2023-08-07T03:42:33;99514.06;;;21.89;100.00
59650;BME280;46162;57.568;25.814;2023-08-07T03:45:03;99516.59;;;21.96;100.00
59650;BME280;46162;57.568;25.814;2023-08-07T03:47:31;99505.56;;;21.90;100.00
59650;BME280;46162;57.568;25.814;2023-08-07T03:50:01;99505.38;;;21.97;100.00
59650;BME280;46162;57.568;25.814;2023-08-07T03:52:30;99507.28;;;21.97;100.00
59650;BME280;46162;57.568;25.814;2023-08-07T03:55:00;99508.38;;;21.96;100.00
59650;BME280;46162;57.568;25.814;2023-08-07T03:57:30;99508.28;;;22.12;100.00
59650;BME280;46162;57.568;25.814;2023-08-07T03:59:59;99517.22;;;22.20;100.00
59650;BME280;46162;57.568;25.814;2023-08-07T04:02:39;99509.00;;;22.03;100.00
59650;BME280;46162;57.568;25.814;2023-08-07T04:05:10;99510.41;;;22.05;100.00
59650;BME280;46162;57.568;25.814;2023-08-07T04:07:39;99501.69;;;22.30;100.00
59650;BME280;46162;57.568;25.814;2023-08-07T04:10:08;99508.19;;;22.24;100.00
59650;BME280;46162;57.568;25.814;2023-08-07T04:12:38;99500.94;;;22.40;100.00
59650;BME280;46162;57.568;25.814;2023-08-07T04:15:08;99498.75;;;22.42;100.00
59650;BME280;46162;57.568;25.814;2023-08-07T04:17:37;99477.00;;;22.63;100.00
59650;BME280;46162;57.568;25.814;2023-08-07T04:20:07;99488.19;;;22.56;100.00
59650;BME280;46162;57.568;25.814;2023-08-07T04:22:36;99483.16;;;22.48;100.00
59650;BME280;46162;57.568;25.814;2023-08-07T04:25:06;99485.13;;;22.52;100.00
59650;BME280;46162;57.568;25.814;2023-08-07T04:27:34;99484.97;;;22.64;100.00
59650;BME280;46162;57.568;25.814;2023-08-07T04:30:06;99487.72;;;22.64;100.00
59650;BME280;46162;57.568;25.814;2023-08-07T04:32:34;99497.03;;;22.58;100.00
59650;BME280;46162;57.568;25.814;2023-08-07T04:35:04;99498.31;;;22.50;100.00
59650;BME280;46162;57.568;25.814;2023-08-07T04:37:33;99489.06;;;22.62;100.00
59650;BME280;46162;57.568;25.814;2023-08-07T04:40:02;99497.31;;;22.62;100.00
59650;BME280;46162;57.568;25.814;2023-08-07T04:42:32;99499.03;;;22.68;100.00
59650;BME280;46162;57.568;25.814;2023-08-07T04:45:00;99499.03;;;22.68;100.00
59650;BME280;46162;57.568;25.814;2023-08-07T04:47:30;99490.91;;;22.51;100.00
59650;BME280;46162;57.568;25.814;2023-08-07T04:49:59;99488.38;;;22.49;100.00
59650;BME280;46162;57.568;25.814;2023-08-07T04:52:28;99482.94;;;22.54;100.00
59650;BME280;46162;57.568;25.814;2023-08-07T04:54:57;99480.56;;;22.63;100.00
59650;BME280;46162;57.568;25.814;2023-08-07T04:57:25;99488.13;;;22.78;100.00
59650;BME280;46162;57.568;25.814;2023-08-07T04:59:54;99481.44;;;22.69;100.00
59650;BME280;46162;57.568;25.814;2023-08-07T05:02:23;99482.03;;;22.76;100.00
59650;BME280;46162;57.568;25.814;2023-08-07T05:04:53;99477.03;;;22.68;100.00
59650;BME280;46162;57.568;25.814;2023-08-07T05:07:22;99480.81;;;22.62;100.00
59650;BME280;46162;57.568;25.814;2023-08-07T05:09:50;99475.34;;;22.67;100.00
59650;BME280;46162;57.568;25.814;2023-08-07T05:12:19;99471.81;;;22.71;100.00
59650;BME280;46162;57.568;25.814;2023-08-07T05:14:48;99476.72;;;22.64;100.00
59650;BME280;46162;57.568;25.814;2023-08-07T05:17:17;99472.19;;;22.80;100.00
59650;BME280;46162;57.568;25.814;2023-08-07T05:19:45;99466.19;;;22.88;100.00
59650;BME280;46162;57.568;25.814;2023-08-07T05:22:15;99454.66;;;22.91;100.00
59650;BME280;46162;57.568;25.814;2023-08-07T05:24:44;99465.00;;;23.11;100.00
59650;BME280;46162;57.568;25.814;2023-08-07T05:27:13;99459.56;;;23.22;100.00
59650;BME280;46162;57.568;25.814;2023-08-07T05:29:42;99454.44;;;23.35;100.00
59650;BME280;46162;57.568;25.814;2023-08-07T05:32:13;99451.44;;;23.37;100.00
59650;BME280;46162;57.568;25.814;2023-08-07T05:34:43;99442.72;;;23.55;100.00
59650;BME280;46162;57.568;25.814;2023-08-07T05:37:12;99443.03;;;23.59;100.00
59650;BME280;46162;57.568;25.814;2023-08-07T05:39:42;99439.84;;;23.88;100.00
59650;BME280;46162;57.568;25.814;2023-08-07T05:42:11;99437.91;;;23.88;100.00
59650;BME280;46162;57.568;25.814;2023-08-07T05:44:39;99437.66;;;23.90;100.00
59650;BME280;46162;57.568;25.814;2023-08-07T05:47:08;99436.03;;;23.99;100.00
59650;BME280;46162;57.568;25.814;2023-08-07T05:49:37;99432.41;;;23.93;100.00
59650;BME280;46162;57.568;25.814;2023-08-07T05:52:06;99434.63;;;23.91;100.00
59650;BME280;46162;57.568;25.814;2023-08-07T05:54:35;99430.81;;;24.08;100.00
59650;BME280;46162;57.568;25.814;2023-08-07T05:57:06;99418.44;;;24.20;100.00
59650;BME280;46162;57.568;25.814;2023-08-07T05:59:35;99420.09;;;24.21;100.00
59650;BME280;46162;57.568;25.814;2023-08-07T06:02:04;99413.22;;;24.24;100.00
59650;BME280;46162;57.568;25.814;2023-08-07T06:04:33;99407.97;;;24.28;100.00
59650;BME280;46162;57.568;25.814;2023-08-07T06:07:01;99406.59;;;24.30;100.00
59650;BME280;46162;57.568;25.814;2023-08-07T06:09:30;99411.84;;;24.27;100.00
59650;BME280;46162;57.568;25.814;2023-08-07T06:11:59;99393.09;;;24.34;100.00
59650;BME280;46162;57.568;25.814;2023-08-07T06:14:29;99401.97;;;24.46;100.00
59650;BME280;46162;57.568;25.814;2023-08-07T06:16:57;99399.16;;;24.41;100.00
59650;BME280;46162;57.568;25.814;2023-08-07T06:19:28;99398.38;;;24.51;100.00
59650;BME280;46162;57.568;25.814;2023-08-07T06:21:59;99401.41;;;24.54;100.00
59650;BME280;46162;57.568;25.814;2023-08-07T06:24:28;99388.16;;;24.61;100.00
59650;BME280;46162;57.568;25.814;2023-08-07T06:26:56;99385.38;;;24.77;100.00
59650;BME280;46162;57.568;25.814;2023-08-07T06:29:25;99377.66;;;24.89;100.00
59650;BME280;46162;57.568;25.814;2023-08-07T06:31:55;99376.78;;;25.09;100.00
59650;BME280;46162;57.568;25.814;2023-08-07T06:34:24;99388.66;;;25.04;100.00
59650;BME280;46162;57.568;25.814;2023-08-07T06:36:53;99383.16;;;25.20;100.00
59650;BME280;46162;57.568;25.814;2023-08-07T06:39:22;99385.34;;;25.23;100.00
59650;BME280;46162;57.568;25.814;2023-08-07T06:41:51;99380.91;;;25.27;100.00
59650;BME280;46162;57.568;25.814;2023-08-07T06:44:26;99379.81;;;25.28;100.00
59650;BME280;46162;57.568;25.814;2023-08-07T06:46:56;99381.72;;;25.38;100.00
59650;BME280;46162;57.568;25.814;2023-08-07T06:49:25;99370.59;;;25.53;100.00
59650;BME280;46162;57.568;25.814;2023-08-07T06:51:53;99369.47;;;25.64;100.00
59650;BME280;46162;57.568;25.814;2023-08-07T06:54:22;99362.84;;;25.55;100.00
59650;BME280;46162;57.568;25.814;2023-08-07T06:56:51;99364.78;;;25.60;100.00
59650;BME280;46162;57.568;25.814;2023-08-07T06:59:19;99364.78;;;25.60;100.00
59650;BME280;46162;57.568;25.814;2023-08-07T07:01:48;99364.16;;;25.73;100.00
59650;BME280;46162;57.568;25.814;2023-08-07T07:04:18;99363.56;;;25.76;100.00
59650;BME280;46162;57.568;25.814;2023-08-07T07:06:47;99350.56;;;25.77;100.00
59650;BME280;46162;57.568;25.814;2023-08-07T07:09:16;99361.31;;;25.88;100.00
59650;BME280;46162;57.568;25.814;2023-08-07T07:11:45;99350.53;;;25.92;100.00
59650;BME280;46162;57.568;25.814;2023-08-07T07:14:14;99341.28;;;26.12;100.00
59650;BME280;46162;57.568;25.814;2023-08-07T07:16:42;99341.31;;;26.07;100.00
59650;BME280;46162;57.568;25.814;2023-08-07T07:19:11;99344.28;;;26.15;100.00
59650;BME280;46162;57.568;25.814;2023-08-07T07:21:41;99333.03;;;26.41;100.00
59650;BME280;46162;57.568;25.814;2023-08-07T07:24:10;99334.22;;;26.30;100.00
59650;BME280;46162;57.568;25.814;2023-08-07T07:26:39;99338.03;;;26.39;100.00
59650;BME280;46162;57.568;25.814;2023-08-07T07:29:07;99332.13;;;26.46;100.00
59650;BME280;46162;57.568;25.814;2023-08-07T07:31:36;99341.03;;;26.43;100.00
59650;BME280;46162;57.568;25.814;2023-08-07T07:34:05;99332.53;;;26.34;100.00
59650;BME280;46162;57.568;25.814;2023-08-07T07:36:34;99334.88;;;26.56;100.00
59650;BME280;46162;57.568;25.814;2023-08-07T07:39:04;99329.28;;;26.61;100.00
59650;BME280;46162;57.568;25.814;2023-08-07T07:41:32;99332.94;;;26.51;100.00
59650;BME280;46162;57.568;25.814;2023-08-07T07:44:01;99331.19;;;26.90;100.00
59650;BME280;46162;57.568;25.814;2023-08-07T07:46:30;99331.94;;;26.71;100.00
59650;BME280;46162;57.568;25.814;2023-08-07T07:48:59;99343.03;;;26.71;100.00
59650;BME280;46162;57.568;25.814;2023-08-07T07:51:30;99338.34;;;26.67;100.00
59650;BME280;46162;57.568;25.814;2023-08-07T07:53:59;99336.50;;;26.57;100.00
59650;BME280;46162;57.568;25.814;2023-08-07T07:56:42;99332.34;;;26.59;100.00
59650;BME280;46162;57.568;25.814;2023-08-07T07:59:12;99317.38;;;26.60;100.00
59650;BME280;46162;57.568;25.814;2023-08-07T08:01:40;99320.44;;;26.59;100.00
59650;BME280;46162;57.568;25.814;2023-08-07T08:04:09;99325.88;;;26.69;100.00
59650;BME280;46162;57.568;25.814;2023-08-07T08:06:39;99314.53;;;26.71;100.00
59650;BME280;46162;57.568;25.814;2023-08-07T08:09:08;99307.53;;;26.78;100.00
59650;BME280;46162;57.568;25.814;2023-08-07T08:11:37;99310.13;;;26.94;100.00
59650;BME280;46162;57.568;25.814;2023-08-07T08:14:07;99302.47;;;26.86;100.00
59650;BME280;46162;57.568;25.814;2023-08-07T08:16:39;99304.81;;;26.97;100.00
59650;BME280;46162;57.568;25.814;2023-08-07T08:19:08;99303.97;;;26.97;100.00
59650;BME280;46162;57.568;25.814;2023-08-07T08:21:36;99294.25;;;26.99;100.00
59650;BME280;46162;57.568;25.814;2023-08-07T08:24:07;99295.00;;;27.05;100.00
59650;BME280;46162;57.568;25.814;2023-08-07T08:26:36;99287.38;;;26.97;100.00
59650;BME280;46162;57.568;25.814;2023-08-07T08:29:07;99289.28;;;27.26;100.00
59650;BME280;46162;57.568;25.814;2023-08-07T08:31:37;99287.84;;;27.04;100.00
59650;BME280;46162;57.568;25.814;2023-08-07T08:34:05;99278.47;;;27.00;100.00
59650;BME280;46162;57.568;25.814;2023-08-07T08:36:34;99286.78;;;27.24;100.00
59650;BME280;46162;57.568;25.814;2023-08-07T08:39:03;99292.81;;;27.31;100.00
59650;BME280;46162;57.568;25.814;2023-08-07T08:41:32;99297.75;;;27.34;100.00
59650;BME280;46162;57.568;25.814;2023-08-07T08:44:01;99281.38;;;27.57;100.00
59650;BME280;46162;57.568;25.814;2023-08-07T08:46:33;99284.13;;;27.38;100.00
59650;BME280;46162;57.568;25.814;2023-08-07T08:49:04;99299.28;;;27.21;100.00
59650;BME280;46162;57.568;25.814;2023-08-07T08:51:33;99288.63;;;27.34;100.00
59650;BME280;46162;57.568;25.814;2023-08-07T08:54:03;99287.53;;;27.30;100.00
59650;BME280;46162;57.568;25.814;2023-08-07T08:56:33;99290.50;;;27.38;100.00
59650;BME280;46162;57.568;25.814;2023-08-07T08:59:02;99289.03;;;27.22;100.00
59650;BME280;46162;57.568;25.814;2023-08-07T09:01:32;99285.97;;;27.23;100.00
59650;BME280;46162;57.568;25.814;2023-08-07T09:04:02;99278.19;;;27.26;100.00
59650;BME280;46162;57.568;25.814;2023-08-07T09:06:32;99276.00;;;27.22;100.00
59650;BME280;46162;57.568;25.814;2023-08-07T09:09:01;99273.75;;;27.24;100.00
59650;BME280;46162;57.568;25.814;2023-08-07T09:11:31;99266.75;;;27.51;100.00
59650;BME280;46162;57.568;25.814;2023-08-07T09:14:01;99259.66;;;27.45;100.00
59650;BME280;46162;57.568;25.814;2023-08-07T09:16:30;99245.13;;;27.72;100.00
59650;BME280;46162;57.568;25.814;2023-08-07T09:19:01;99245.41;;;27.71;100.00
59650;BME280;46162;57.568;25.814;2023-08-07T09:21:31;99249.03;;;27.90;100.00
59650;BME280;46162;57.568;25.814;2023-08-07T09:24:00;99245.63;;;27.93;100.00
59650;BME280;46162;57.568;25.814;2023-08-07T09:26:31;99246.25;;;28.23;100.00
59650;BME280;46162;57.568;25.814;2023-08-07T09:29:01;99234.78;;;28.29;100.00
59650;BME280;46162;57.568;25.814;2023-08-07T09:31:30;99233.94;;;28.29;100.00
59650;BME280;46162;57.568;25.814;2023-08-07T09:34:03;99231.16;;;28.62;100.00
59650;BME280;46162;57.568;25.814;2023-08-07T09:36:32;99242.97;;;28.67;100.00
59650;BME280;46162;57.568;25.814;2023-08-07T09:39:02;99227.34;;;28.99;100.00
59650;BME280;46162;57.568;25.814;2023-08-07T09:41:31;99224.75;;;29.03;100.00
59650;BME280;46162;57.568;25.814;2023-08-07T09:44:06;99219.94;;;28.94;100.00
59650;BME280;46162;57.568;25.814;2023-08-07T09:46:41;99206.03;;;28.94;100.00
59650;BME280;46162;57.568;25.814;2023-08-07T09:49:11;99218.81;;;29.09;100.00
59650;BME280;46162;57.568;25.814;2023-08-07T09:51:42;99217.91;;;29.14;100.00
59650;BME280;46162;57.568;25.814;2023-08-07T09:54:11;99212.50;;;29.31;100.00
59650;BME280;46162;57.568;25.814;2023-08-07T09:56:40;99189.09;;;29.46;100.00
59650;BME280;46162;57.568;25.814;2023-08-07T09:59:09;99194.78;;;29.41;100.00
59650;BME280;46162;57.568;25.814;2023-08-07T10:01:38;99191.75;;;29.51;100.00
59650;BME280;46162;57.568;25.814;2023-08-07T10:04:07;99192.00;;;29.41;100.00
59650;BME280;46162;57.568;25.814;2023-08-07T10:06:43;99193.69;;;29.28;100.00
59650;BME280;46162;57.568;25.814;2023-08-07T10:09:12;99188.00;;;29.33;100.00
59650;BME280;46162;57.568;25.814;2023-08-07T10:11:41;99186.63;;;29.45;100.00
59650;BME280;46162;57.568;25.814;2023-08-07T10:14:11;99186.06;;;29.70;100.00
59650;BME280;46162;57.568;25.814;2023-08-07T10:16:40;99173.09;;;29.66;100.00
59650;BME280;46162;57.568;25.814;2023-08-07T10:19:09;99176.06;;;29.69;100.00
59650;BME280;46162;57.568;25.814;2023-08-07T10:21:39;99170.56;;;29.78;100.00
59650;BME280;46162;57.568;25.814;2023-08-07T10:24:10;99166.63;;;29.79;100.00
59650;BME280;46162;57.568;25.814;2023-08-07T10:26:39;99159.69;;;29.90;100.00
59650;BME280;46162;57.568;25.814;2023-08-07T10:29:10;99158.22;;;29.93;100.00
59650;BME280;46162;57.568;25.814;2023-08-07T10:31:40;99152.84;;;29.96;100.00
59650;BME280;46162;57.568;25.814;2023-08-07T10:34:11;99146.47;;;29.96;100.00
59650;BME280;46162;57.568;25.814;2023-08-07T10:36:40;99142.53;;;29.97;100.00
59650;BME280;46162;57.568;25.814;2023-08-07T10:39:11;99131.22;;;29.93;100.00
59650;BME280;46162;57.568;25.814;2023-08-07T10:41:41;99133.69;;;29.95;100.00
59650;BME280;46162;57.568;25.814;2023-08-07T10:44:22;99128.56;;;29.88;100.00
59650;BME280;46162;57.568;25.814;2023-08-07T10:46:52;99126.25;;;30.13;100.00
59650;BME280;46162;57.568;25.814;2023-08-07T10:49:35;99117.75;;;30.18;100.00
59650;BME280;46162;57.568;25.814;2023-08-07T10:52:14;99114.63;;;30.11;100.00
59650;BME280;46162;57.568;25.814;2023-08-07T10:54:48;99107.13;;;30.20;100.00
59650;BME280;46162;57.568;25.814;2023-08-07T10:57:18;99109.50;;;30.04;100.00
59650;BME280;46162;57.568;25.814;2023-08-07T10:59:49;99098.13;;;30.23;100.00
59650;BME280;46162;57.568;25.814;2023-08-07T11:02:23;99093.28;;;30.29;100.00
59650;BME280;46162;57.568;25.814;2023-08-07T11:04:53;99088.19;;;30.31;100.00
59650;BME280;46162;57.568;25.814;2023-08-07T11:07:26;99089.06;;;30.49;100.00
59650;BME280;46162;57.568;25.814;2023-08-07T11:09:58;99090.53;;;30.46;100.00
59650;BME280;46162;57.568;25.814;2023-08-07T11:12:28;99076.00;;;30.49;100.00
59650;BME280;46162;57.568;25.814;2023-08-07T11:14:57;99079.75;;;30.53;100.00
59650;BME280;46162;57.568;25.814;2023-08-07T11:17:26;99069.63;;;30.57;100.00
59650;BME280;46162;57.568;25.814;2023-08-07T11:19:56;99067.97;;;30.56;100.00
59650;BME280;46162;57.568;25.814;2023-08-07T11:22:25;99062.53;;;30.51;100.00
59650;BME280;46162;57.568;25.814;2023-08-07T11:24:53;99057.97;;;30.55;100.00
59650;BME280;46162;57.568;25.814;2023-08-07T11:27:23;99050.59;;;30.42;100.00
59650;BME280;46162;57.568;25.814;2023-08-07T11:29:53;99047.94;;;30.37;100.00
59650;BME280;46162;57.568;25.814;2023-08-07T11:32:21;99049.28;;;30.48;100.00
59650;BME280;46162;57.568;25.814;2023-08-07T11:34:50;99045.19;;;30.46;100.00
59650;BME280;46162;57.568;25.814;2023-08-07T11:37:19;99041.06;;;30.43;100.00
59650;BME280;46162;57.568;25.814;2023-08-07T11:39:48;99044.66;;;30.43;100.00
59650;BME280;46162;57.568;25.814;2023-08-07T11:42:17;99034.88;;;30.55;100.00
59650;BME280;46162;57.568;25.814;2023-08-07T11:44:47;99046.34;;;30.45;100.00
59650;BME280;46162;57.568;25.814;2023-08-07T11:47:16;99043.84;;;30.43;100.00
59650;BME280;46162;57.568;25.814;2023-08-07T11:49:45;99044.19;;;30.50;100.00
59650;BME280;46162;57.568;25.814;2023-08-07T11:52:14;99036.50;;;30.47;100.00
59650;BME280;46162;57.568;25.814;2023-08-07T11:54:46;99034.03;;;30.37;100.00
59650;BME280;46162;57.568;25.814;2023-08-07T11:57:16;99025.84;;;30.40;100.00
59650;BME280;46162;57.568;25.814;2023-08-07T11:59:50;99026.16;;;30.30;100.00
59650;BME280;46162;57.568;25.814;2023-08-07T12:04:57;99008.13;;;30.28;100.00
59650;BME280;46162;57.568;25.814;2023-08-07T12:07:27;99019.03;;;30.24;100.00
59650;BME280;46162;57.568;25.814;2023-08-07T12:10:03;99012.97;;;30.13;100.00
59650;BME280;46162;57.568;25.814;2023-08-07T12:12:33;99014.63;;;30.23;100.00
59650;BME280;46162;57.568;25.814;2023-08-07T12:15:04;99000.56;;;30.19;100.00
59650;BME280;46162;57.568;25.814;2023-08-07T12:17:35;98995.59;;;30.16;100.00
59650;BME280;46162;57.568;25.814;2023-08-07T12:20:05;99016.56;;;30.14;100.00
59650;BME280;46162;57.568;25.814;2023-08-07T12:22:37;98999.91;;;30.22;100.00
59650;BME280;46162;57.568;25.814;2023-08-07T12:25:07;99006.13;;;30.19;100.00
59650;BME280;46162;57.568;25.814;2023-08-07T12:27:35;98995.81;;;30.20;100.00
59650;BME280;46162;57.568;25.814;2023-08-07T12:30:07;98984.00;;;30.14;100.00
59650;BME280;46162;57.568;25.814;2023-08-07T12:32:35;98979.00;;;29.94;100.00
59650;BME280;46162;57.568;25.814;2023-08-07T12:35:05;98969.69;;;29.90;100.00
59650;BME280;46162;57.568;25.814;2023-08-07T12:37:38;98977.88;;;29.95;100.00
59650;BME280;46162;57.568;25.814;2023-08-07T12:40:08;98958.06;;;29.96;100.00
59650;BME280;46162;57.568;25.814;2023-08-07T12:42:40;98947.13;;;30.00;100.00
59650;BME280;46162;57.568;25.814;2023-08-07T12:45:11;98959.53;;;29.94;100.00
59650;BME280;46162;57.568;25.814;2023-08-07T12:47:42;98921.75;;;30.01;100.00
59650;BME280;46162;57.568;25.814;2023-08-07T12:50:11;98921.44;;;30.03;100.00
59650;BME280;46162;57.568;25.814;2023-08-07T12:52:40;98912.44;;;30.06;100.00
59650;BME280;46162;57.568;25.814;2023-08-07T12:55:09;98895.22;;;30.04;100.00